Time;durP1;ratioP1;P1;durP2;ratioP2;P2;SDS_P1;SDS_P2;PMS_P1;PMS_P2;Temp;Humidity;BMP_temperature;BMP_pressure;BME280_temperature;BME280_humidity;BME280_pressure;Samples;Min_cycle;Max_cycle;Signal;HPM_P1;HPM_P2
2022/07/22 00:00:47;;;;;;;;;;;;;;;19.17;49.59;100478.31;1430284;91;20296;-79
2022/07/22 00:03:13;;;;;;;;;;;;;;;19.09;50.35;100479.31;1422498;91;20336;-78
2022/07/22 00:05:39;;;;;;;;;;;;;;;19.03;52.09;100480.64;1416083;91;20314;-78
2022/07/22 00:08:05;;;;;;;;;;;;;;;18.94;52.65;100480.00;1422880;91;20310;-78
2022/07/22 00:10:31;;;;;;;;;;;;;;;18.86;52.21;100475.62;1429341;91;20320;-78
2022/07/22 00:12:57;;;;;;;;;;;;;;;18.74;51.87;100467.85;1429012;91;20373;-78
2022/07/22 00:15:23;;;;;;;;;;;;;;;18.65;51.83;100459.64;1429762;91;20508;-78
2022/07/22 00:17:49;;;;;;;;;;;;;;;18.62;52.71;100462.72;1421948;91;20280;-78
2022/07/22 00:20:16;;;;;;;;;;;;;;;18.57;52.35;100461.15;1425087;90;20348;-78
2022/07/22 00:22:42;;;;;;;;;;;;;;;18.46;53.26;100464.69;1428617;91;20425;-78
2022/07/22 00:25:10;;;;;;;;;;;;;;;18.37;52.68;100465.88;1423319;91;20658;-79
2022/07/22 00:27:36;;;;;;;;;;;;;;;18.35;52.91;100469.27;1425588;91;20309;-78
2022/07/22 00:30:03;;;;;;;;;;;;;;;18.34;53.13;100468.96;1421396;91;20525;-79
2022/07/22 00:32:28;;;;;;;;;;;;;;;18.28;54.16;100473.77;1425888;91;20408;-79
2022/07/22 00:34:54;;;;;;;;;;;;;;;18.25;53.36;100472.83;1423747;91;20900;-79
2022/07/22 00:37:22;;;;;;;;;;;;;;;18.21;53.97;100470.20;1424683;91;20628;-79
2022/07/22 00:39:48;;;;;;;;;;;;;;;18.16;54.95;100474.02;1428356;91;21093;-79
2022/07/22 00:42:15;;;;;;;;;;;;;;;18.13;54.81;100471.73;1425246;91;20304;-79
2022/07/22 00:44:42;;;;;;;;;;;;;;;18.13;54.63;100470.39;1431468;91;20870;-79
2022/07/22 00:47:10;;;;;;;;;;;;;;;18.09;54.72;100473.12;1422771;91;20532;-78
2022/07/22 00:49:36;;;;;;;;;;;;;;;18.01;55.75;100468.73;1429440;91;20259;-79
2022/07/22 00:52:03;;;;;;;;;;;;;;;17.95;56.63;100474.39;1419854;91;20329;-79
2022/07/22 00:54:36;;;;;;;;;;;;;;;17.90;56.77;100471.45;1427468;91;20863;-80
2022/07/22 00:57:02;;;;;;;;;;;;;;;17.79;56.24;100480.02;1418503;91;20436;-79
2022/07/22 00:59:30;;;;;;;;;;;;;;;17.76;56.39;100488.41;1430427;91;20901;-80
2022/07/22 01:02:03;;;;;;;;;;;;;;;17.73;56.73;100489.61;1429016;91;20900;-80
2022/07/22 01:04:29;;;;;;;;;;;;;;;17.70;56.20;100475.28;1427644;91;20816;-79
2022/07/22 01:06:55;;;;;;;;;;;;;;;17.67;56.00;100479.68;1428151;91;20297;-80
2022/07/22 01:09:21;;;;;;;;;;;;;;;17.64;55.77;100483.27;1426606;91;20355;-79
2022/07/22 01:11:48;;;;;;;;;;;;;;;17.55;56.91;100483.88;1422842;91;21122;-79
2022/07/22 01:14:14;;;;;;;;;;;;;;;17.42;56.30;100484.59;1423326;91;20384;-79
2022/07/22 01:16:40;;;;;;;;;;;;;;;17.36;55.70;100479.49;1427448;91;20343;-79
2022/07/22 01:19:06;;;;;;;;;;;;;;;17.31;57.12;100477.89;1414838;91;20380;-79
2022/07/22 01:21:32;;;;;;;;;;;;;;;17.27;56.72;100475.80;1422080;91;20303;-79
2022/07/22 01:23:59;;;;;;;;;;;;;;;17.19;56.68;100471.39;1390829;94;20352;-79
2022/07/22 01:26:25;;;;;;;;;;;;;;;17.14;55.79;100474.63;1395486;93;20420;-78
2022/07/22 01:28:51;;;;;;;;;;;;;;;17.12;56.54;100475.86;1419317;92;20401;-78
2022/07/22 01:31:18;;;;;;;;;;;;;;;17.09;57.01;100477.06;1423961;91;20310;-79
2022/07/22 01:33:46;;;;;;;;;;;;;;;17.08;55.63;100476.72;1424826;91;20980;-78
2022/07/22 01:36:13;;;;;;;;;;;;;;;17.06;55.99;100479.26;1431072;91;20816;-79
2022/07/22 01:38:39;;;;;;;;;;;;;;;17.01;56.97;100477.17;1423148;91;20439;-79
2022/07/22 01:41:05;;;;;;;;;;;;;;;16.97;56.80;100481.22;1422125;91;21729;-79
2022/07/22 01:43:31;;;;;;;;;;;;;;;16.94;57.17;100478.92;1409990;91;20295;-79
2022/07/22 01:45:57;;;;;;;;;;;;;;;16.90;58.09;100483.00;1424443;91;20318;-79
2022/07/22 01:48:23;;;;;;;;;;;;;;;16.89;58.07;100482.69;1422508;91;20341;-78
2022/07/22 01:50:50;;;;;;;;;;;;;;;16.87;58.22;100481.53;1421865;91;20395;-80
2022/07/22 01:53:18;;;;;;;;;;;;;;;16.85;58.18;100474.20;1422479;90;20377;-80
2022/07/22 01:55:44;;;;;;;;;;;;;;;16.82;57.91;100477.76;1442610;90;20777;-80
2022/07/22 01:58:10;;;;;;;;;;;;;;;16.79;57.71;100477.63;1441428;90;20873;-79
2022/07/22 02:00:36;;;;;;;;;;;;;;;16.76;58.09;100474.47;1441964;90;20285;-80
2022/07/22 02:03:03;;;;;;;;;;;;;;;16.70;57.86;100476.86;1448145;90;20250;-79
2022/07/22 02:05:29;;;;;;;;;;;;;;;16.64;58.13;100473.61;1442636;90;20293;-80
2022/07/22 02:08:06;;;;;;;;;;;;;;;16.62;58.13;100468.95;1440270;90;20984;-80
2022/07/22 02:10:32;;;;;;;;;;;;;;;16.59;58.03;100468.49;1433639;90;20459;-79
2022/07/22 02:12:59;;;;;;;;;;;;;;;16.55;57.97;100472.05;1432837;90;20412;-80
2022/07/22 02:15:26;;;;;;;;;;;;;;;16.57;57.39;100471.37;1441985;90;20301;-78
2022/07/22 02:17:52;;;;;;;;;;;;;;;16.57;57.90;100478.05;1435360;90;21571;-78
2022/07/22 02:20:18;;;;;;;;;;;;;;;16.55;60.33;100472.05;1424189;91;20340;-78
2022/07/22 02:22:44;;;;;;;;;;;;;;;16.54;59.97;100472.22;1405547;91;20399;-78
2022/07/22 02:25:11;;;;;;;;;;;;;;;16.53;60.01;100467.39;1428672;91;20318;-81
2022/07/22 02:27:37;;;;;;;;;;;;;;;16.54;60.40;100470.89;1415414;91;21214;-80
2022/07/22 02:30:05;;;;;;;;;;;;;;;16.51;59.41;100472.08;1422167;89;20293;-79
2022/07/22 02:32:32;;;;;;;;;;;;;;;16.50;58.82;100473.11;1412150;91;20342;-79
2022/07/22 02:34:57;;;;;;;;;;;;;;;16.46;58.75;100461.97;1430599;91;20397;-79
2022/07/22 02:37:24;;;;;;;;;;;;;;;16.44;58.18;100466.66;1424570;90;20868;-79
2022/07/22 02:39:50;;;;;;;;;;;;;;;16.45;58.52;100468.82;1423023;91;20298;-79
2022/07/22 02:42:16;;;;;;;;;;;;;;;16.46;59.10;100465.16;1430092;91;20952;-79
2022/07/22 02:44:42;;;;;;;;;;;;;;;16.44;58.93;100462.66;1421617;91;20317;-79
2022/07/22 02:47:07;;;;;;;;;;;;;;;16.41;60.00;100467.03;1424079;91;20443;-79
2022/07/22 02:49:33;;;;;;;;;;;;;;;16.45;59.45;100466.15;1423936;91;20332;-78
2022/07/22 02:52:00;;;;;;;;;;;;;;;16.47;60.41;100474.81;1425830;92;20372;-79
2022/07/22 02:54:26;;;;;;;;;;;;;;;16.49;59.67;100477.31;1430868;91;20295;-78
2022/07/22 02:56:51;;;;;;;;;;;;;;;16.50;60.75;100479.78;1457825;90;20422;-78
2022/07/22 02:59:17;;;;;;;;;;;;;;;16.50;60.81;100479.78;1449071;90;21167;-79
2022/07/22 03:01:43;;;;;;;;;;;;;;;16.46;60.85;100482.52;1441486;90;20358;-79
2022/07/22 03:04:09;;;;;;;;;;;;;;;16.41;59.97;100474.22;1432830;91;20305;-79
2022/07/22 03:06:35;;;;;;;;;;;;;;;16.37;59.99;100476.44;1422441;91;20291;-79
2022/07/22 03:09:01;;;;;;;;;;;;;;;16.28;60.15;100473.52;1427215;91;20349;-79
2022/07/22 03:11:27;;;;;;;;;;;;;;;16.20;60.10;100474.45;1427813;91;20899;-79
2022/07/22 03:13:52;;;;;;;;;;;;;;;16.17;60.48;100478.82;1427659;91;20395;-79
2022/07/22 03:16:18;;;;;;;;;;;;;;;16.16;59.99;100472.31;1423802;91;20974;-79
2022/07/22 03:18:44;;;;;;;;;;;;;;;16.17;59.05;100474.82;1425038;91;20284;-79
2022/07/22 03:21:10;;;;;;;;;;;;;;;16.20;59.32;100477.13;1431866;91;21129;-80
2022/07/22 03:23:36;;;;;;;;;;;;;;;16.20;60.96;100478.45;1431385;91;20365;-79
2022/07/22 03:26:02;;;;;;;;;;;;;;;16.19;60.62;100470.61;1435959;90;20336;-79
2022/07/22 03:28:28;;;;;;;;;;;;;;;16.23;59.92;100474.08;1431720;91;20357;-79
2022/07/22 03:30:54;;;;;;;;;;;;;;;16.28;61.62;100476.69;1427805;91;20334;-80
2022/07/22 03:33:20;;;;;;;;;;;;;;;16.32;62.04;100475.34;1433004;91;20440;-80
2022/07/22 03:35:46;;;;;;;;;;;;;;;16.34;63.87;100478.63;1415587;91;20595;-81
2022/07/22 03:38:12;;;;;;;;;;;;;;;16.35;64.67;100492.33;1425330;91;20894;-80
2022/07/22 03:40:37;;;;;;;;;;;;;;;16.31;63.37;100490.50;1433677;91;20433;-80
2022/07/22 03:43:03;;;;;;;;;;;;;;;16.34;62.81;100491.98;1429421;91;20901;-80
2022/07/22 03:45:29;;;;;;;;;;;;;;;16.38;62.94;100494.63;1424723;91;20291;-80
2022/07/22 03:47:57;;;;;;;;;;;;;;;16.42;61.70;100492.72;1422399;91;20306;-80
2022/07/22 03:50:23;;;;;;;;;;;;;;;16.47;62.56;100498.86;1425621;91;20457;-81
2022/07/22 03:52:49;;;;;;;;;;;;;;;16.52;63.02;100499.14;1424516;91;20349;-82
2022/07/22 03:55:15;;;;;;;;;;;;;;;16.59;62.88;100499.22;1421041;91;20507;-81
2022/07/22 03:57:41;;;;;;;;;;;;;;;16.64;62.49;100502.17;1423885;91;20877;-81
2022/07/22 04:00:08;;;;;;;;;;;;;;;16.67;61.89;100501.29;1422997;91;20335;-81
2022/07/22 04:02:33;;;;;;;;;;;;;;;16.70;61.31;100499.58;1427983;91;20328;-81
2022/07/22 04:04:59;;;;;;;;;;;;;;;16.74;61.98;100501.87;1425500;91;20328;-81
2022/07/22 04:07:25;;;;;;;;;;;;;;;16.79;61.68;100500.85;1427922;91;20959;-80
2022/07/22 04:09:51;;;;;;;;;;;;;;;16.82;61.94;100495.95;1425748;91;20342;-80
2022/07/22 04:12:17;;;;;;;;;;;;;;;16.87;61.09;100491.39;1420035;91;20790;-80
2022/07/22 04:14:42;;;;;;;;;;;;;;;16.92;61.72;100495.68;1429859;91;20358;-80
2022/07/22 04:17:08;;;;;;;;;;;;;;;16.98;61.36;100498.94;1427828;91;21079;-80
2022/07/22 04:19:34;;;;;;;;;;;;;;;17.04;61.33;100499.52;1433833;91;20408;-80
2022/07/22 04:22:00;;;;;;;;;;;;;;;17.13;59.95;100494.88;1427068;91;20395;-80
2022/07/22 04:24:26;;;;;;;;;;;;;;;17.23;59.63;100499.91;1432020;91;20643;-80
2022/07/22 04:26:52;;;;;;;;;;;;;;;17.33;59.65;100492.42;1426003;91;20358;-80
2022/07/22 04:29:17;;;;;;;;;;;;;;;17.43;61.03;100490.25;1432741;91;20291;-81
2022/07/22 04:31:43;;;;;;;;;;;;;;;17.53;61.02;100489.44;1426368;91;20328;-81
2022/07/22 04:34:09;;;;;;;;;;;;;;;17.63;60.72;100485.59;1424888;91;20292;-81
2022/07/22 04:36:35;;;;;;;;;;;;;;;17.73;59.25;100486.11;1421002;91;20315;-81
2022/07/22 04:39:01;;;;;;;;;;;;;;;17.84;59.38;100490.98;1423527;91;20915;-80
2022/07/22 04:41:26;;;;;;;;;;;;;;;17.96;58.25;100493.95;1421147;91;20456;-81
2022/07/22 04:43:52;;;;;;;;;;;;;;;18.09;57.95;100494.55;1429755;91;20336;-81
2022/07/22 04:46:18;;;;;;;;;;;;;;;18.21;57.70;100491.64;1424545;91;20844;-81
2022/07/22 04:48:44;;;;;;;;;;;;;;;18.34;57.60;100490.91;1433026;91;20357;-80
2022/07/22 04:51:10;;;;;;;;;;;;;;;18.44;57.28;100482.84;1428399;91;20344;-79
2022/07/22 04:53:36;;;;;;;;;;;;;;;18.56;56.92;100484.45;1431287;91;20871;-79
2022/07/22 04:56:01;;;;;;;;;;;;;;;18.68;56.33;100486.05;1422305;91;20449;-79
2022/07/22 04:58:27;;;;;;;;;;;;;;;18.82;56.42;100480.27;1431982;91;20320;-80
2022/07/22 05:00:54;;;;;;;;;;;;;;;18.94;56.34;100478.14;1427493;91;20849;-81
2022/07/22 05:03:20;;;;;;;;;;;;;;;19.08;55.93;100479.53;1428519;91;20335;-80
2022/07/22 05:05:46;;;;;;;;;;;;;;;19.23;54.64;100488.75;1426645;91;21144;-79
2022/07/22 05:08:12;;;;;;;;;;;;;;;19.36;54.68;100482.90;1424301;91;20454;-79
2022/07/22 05:10:38;;;;;;;;;;;;;;;19.52;54.52;100476.82;1428289;91;20322;-79
2022/07/22 05:13:03;;;;;;;;;;;;;;;19.65;54.18;100475.53;1425328;91;20263;-79
2022/07/22 05:15:29;;;;;;;;;;;;;;;19.79;53.84;100470.97;1429882;91;20291;-79
2022/07/22 05:17:55;;;;;;;;;;;;;;;19.92;53.40;100479.03;1432994;91;20366;-78
2022/07/22 05:20:21;;;;;;;;;;;;;;;20.05;52.10;100480.86;1424339;91;20327;-78
2022/07/22 05:22:47;;;;;;;;;;;;;;;20.17;52.11;100485.94;1430724;91;20350;-78
2022/07/22 05:25:13;;;;;;;;;;;;;;;20.32;51.99;100488.91;1427476;91;20342;-78
2022/07/22 05:27:40;;;;;;;;;;;;;;;20.44;50.28;100492.59;1424814;91;20827;-79
2022/07/22 05:30:08;;;;;;;;;;;;;;;20.58;49.29;100490.20;1426162;91;21049;-79
2022/07/22 05:32:34;;;;;;;;;;;;;;;20.77;50.00;100488.98;1433859;91;20961;-79
2022/07/22 05:35:00;;;;;;;;;;;;;;;20.91;50.36;100487.89;1433647;91;20358;-79
2022/07/22 05:37:26;;;;;;;;;;;;;;;21.06;49.74;100484.92;1434169;91;20322;-78
2022/07/22 05:39:51;;;;;;;;;;;;;;;21.22;50.37;100483.60;1426687;91;20342;-78
2022/07/22 05:42:18;;;;;;;;;;;;;;;21.35;49.66;100479.50;1429880;91;20248;-79
2022/07/22 05:44:43;;;;;;;;;;;;;;;21.50;49.70;100480.03;1422914;91;20350;-78
2022/07/22 05:47:09;;;;;;;;;;;;;;;21.66;48.44;100479.19;1426680;91;20827;-80
2022/07/22 05:49:35;;;;;;;;;;;;;;;21.80;47.46;100470.77;1425549;91;20338;-78
2022/07/22 05:52:01;;;;;;;;;;;;;;;21.93;46.66;100469.02;1425695;91;20313;-79
2022/07/22 05:54:28;;;;;;;;;;;;;;;22.08;46.36;100464.92;1431150;92;20431;-79
2022/07/22 05:56:54;;;;;;;;;;;;;;;22.24;44.94;100470.80;1429314;91;20329;-79
2022/07/22 05:59:19;;;;;;;;;;;;;;;22.40;45.49;100475.61;1422390;92;20298;-79
2022/07/22 06:01:45;;;;;;;;;;;;;;;22.56;43.88;100478.75;1415630;92;20806;-80
2022/07/22 06:04:11;;;;;;;;;;;;;;;22.68;42.49;100484.53;1423177;92;20343;-79
2022/07/22 06:06:37;;;;;;;;;;;;;;;22.88;43.13;100491.03;1430123;92;20314;-81
2022/07/22 06:09:03;;;;;;;;;;;;;;;23.01;42.47;100491.94;1423150;92;20284;-80
2022/07/22 06:11:29;;;;;;;;;;;;;;;23.15;42.29;100496.92;1428602;92;20489;-81
2022/07/22 06:13:55;;;;;;;;;;;;;;;23.23;40.02;100495.78;1427963;92;20321;-80
2022/07/22 06:16:20;;;;;;;;;;;;;;;23.36;41.01;100499.66;1429466;92;20314;-80
2022/07/22 06:18:46;;;;;;;;;;;;;;;23.49;40.75;100498.63;1423586;92;20374;-80
2022/07/22 06:21:12;;;;;;;;;;;;;;;23.59;38.86;100502.95;1429473;92;20417;-81
2022/07/22 06:23:38;;;;;;;;;;;;;;;23.71;39.92;100497.59;1423822;91;20342;-79
2022/07/22 06:26:04;;;;;;;;;;;;;;;23.85;39.82;100507.13;1423710;92;20380;-80
2022/07/22 06:28:30;;;;;;;;;;;;;;;24.04;40.16;100502.42;1434661;91;21158;-80
2022/07/22 06:30:55;;;;;;;;;;;;;;;24.22;41.22;100497.42;1431835;91;20248;-80
2022/07/22 06:33:22;;;;;;;;;;;;;;;24.37;39.64;100500.17;1427079;92;20314;-80
2022/07/22 06:35:47;;;;;;;;;;;;;;;24.53;40.25;100496.25;1423288;91;20262;-78
2022/07/22 06:38:13;;;;;;;;;;;;;;;24.71;40.06;100497.15;1429686;92;20355;-85
2022/07/22 06:40:39;;;;;;;;;;;;;;;24.87;40.07;100492.34;1413662;92;20306;-85
2022/07/22 06:43:05;;;;;;;;;;;;;;;25.05;37.83;100492.69;1423966;92;20292;-85
2022/07/22 06:45:31;;;;;;;;;;;;;;;25.19;38.41;100500.84;1429219;92;20569;-85
2022/07/22 06:47:58;;;;;;;;;;;;;;;25.32;36.98;100495.67;1417606;91;20300;-85
2022/07/22 06:50:24;;;;;;;;;;;;;;;25.49;38.51;100502.48;1421146;91;20344;-85
2022/07/22 06:52:50;;;;;;;;;;;;;;;25.60;35.81;100493.42;1431274;91;20907;-86
2022/07/22 06:55:16;;;;;;;;;;;;;;;25.74;37.69;100493.11;1431841;91;20321;-86
2022/07/22 06:57:42;;;;;;;;;;;;;;;25.85;34.07;100501.19;1427601;91;20298;-85
2022/07/22 07:00:09;;;;;;;;;;;;;;;26.00;37.01;100498.43;1424569;91;20398;-85
2022/07/22 07:02:35;;;;;;;;;;;;;;;26.09;33.20;100499.11;1438371;91;20447;-86
2022/07/22 07:05:02;;;;;;;;;;;;;;;26.27;35.42;100497.22;1430435;91;20314;-86
2022/07/22 07:07:28;;;;;;;;;;;;;;;26.42;34.91;100493.89;1422586;91;20462;-86
2022/07/22 07:09:54;;;;;;;;;;;;;;;26.54;36.21;100490.00;1425152;91;20875;-85
2022/07/22 07:12:20;;;;;;;;;;;;;;;26.68;35.59;100495.06;1428068;91;20320;-86
2022/07/22 07:14:46;;;;;;;;;;;;;;;26.84;35.79;100496.05;1428594;91;20827;-85
2022/07/22 07:17:12;;;;;;;;;;;;;;;26.97;35.09;100501.11;1433597;91;20329;-87
2022/07/22 07:19:38;;;;;;;;;;;;;;;27.09;34.42;100500.41;1412050;91;21623;-86
2022/07/22 07:22:03;;;;;;;;;;;;;;;27.20;33.20;100501.38;1425374;91;20320;-86
2022/07/22 07:24:29;;;;;;;;;;;;;;;27.30;33.86;100501.47;1432614;91;21295;-84
2022/07/22 07:26:57;;;;;;;;;;;;;;;27.41;34.82;100505.92;1424011;91;20417;-88
2022/07/22 07:29:24;;;;;;;;;;;;;;;27.57;35.05;100505.55;1434085;91;20320;-87
2022/07/22 07:31:50;;;;;;;;;;;;;;;27.50;30.70;100506.82;1423997;91;20417;-87
2022/07/22 07:34:16;;;;;;;;;;;;;;;27.71;33.58;100507.30;1432246;91;20313;-87
2022/07/22 07:36:42;;;;;;;;;;;;;;;27.89;33.58;100502.02;1429070;91;20358;-87
2022/07/22 07:39:08;;;;;;;;;;;;;;;27.95;31.00;100497.44;1426234;91;20299;-88
2022/07/22 07:41:34;;;;;;;;;;;;;;;28.00;31.56;100501.02;1435251;91;20307;-87
2022/07/22 07:44:00;;;;;;;;;;;;;;;28.06;30.62;100499.97;1436463;91;20402;-88
2022/07/22 07:46:26;;;;;;;;;;;;;;;28.13;32.53;100502.45;1431572;91;20842;-87
2022/07/22 07:48:52;;;;;;;;;;;;;;;28.22;32.33;100506.30;1427309;91;20313;-88
2022/07/22 07:51:17;;;;;;;;;;;;;;;28.32;32.48;100500.94;1434138;91;20292;-88
2022/07/22 07:53:43;;;;;;;;;;;;;;;28.47;33.23;100510.30;1427253;90;20834;-88
2022/07/22 07:56:09;;;;;;;;;;;;;;;28.61;32.71;100505.20;1437309;91;20373;-86
2022/07/22 07:58:35;;;;;;;;;;;;;;;28.66;31.35;100510.12;1427031;91;20417;-87
2022/07/22 08:01:01;;;;;;;;;;;;;;;28.83;32.68;100504.99;1425561;91;20375;-86
2022/07/22 08:03:27;;;;;;;;;;;;;;;28.88;30.49;100497.66;1428278;91;20811;-85
2022/07/22 08:05:53;;;;;;;;;;;;;;;28.92;28.18;100501.50;1431397;91;20284;-86
2022/07/22 08:08:19;;;;;;;;;;;;;;;29.11;30.00;100497.75;1432774;91;20358;-86
2022/07/22 08:10:45;;;;;;;;;;;;;;;29.28;30.43;100498.06;1429712;91;20269;-86
2022/07/22 08:13:12;;;;;;;;;;;;;;;29.45;30.89;100498.63;1428652;91;20366;-85
2022/07/22 08:15:38;;;;;;;;;;;;;;;29.54;28.54;100495.63;1419209;91;20366;-85
2022/07/22 08:18:04;;;;;;;;;;;;;;;29.60;29.74;100498.63;1424345;91;20320;-86
2022/07/22 08:20:30;;;;;;;;;;;;;;;29.72;29.85;100505.75;1422952;91;20313;-86
2022/07/22 08:22:56;;;;;;;;;;;;;;;29.83;30.02;100508.20;1432074;91;20843;-85
2022/07/22 08:25:22;;;;;;;;;;;;;;;30.03;30.41;100506.55;1391455;93;20287;-83
2022/07/22 08:27:48;;;;;;;;;;;;;;;30.18;30.96;100500.23;1425756;91;20930;-84
2022/07/22 08:30:15;;;;;;;;;;;;;;;30.25;29.25;100501.63;1431120;91;20954;-83
2022/07/22 08:32:41;;;;;;;;;;;;;;;30.38;29.79;100502.13;1428529;91;20358;-84
2022/07/22 08:35:08;;;;;;;;;;;;;;;30.49;30.36;100501.81;1425152;91;21250;-84
2022/07/22 08:37:34;;;;;;;;;;;;;;;30.63;30.15;100495.77;1418672;91;20338;-86
2022/07/22 08:40:01;;;;;;;;;;;;;;;30.78;29.73;100497.86;1425016;91;20477;-86
2022/07/22 08:42:27;;;;;;;;;;;;;;;30.90;29.01;100499.48;1426304;91;20321;-86
2022/07/22 08:44:54;;;;;;;;;;;;;;;30.88;27.12;100494.31;1428971;91;20284;-85
2022/07/22 08:47:23;;;;;;;;;;;;;;;30.96;27.91;100492.91;1429394;91;20328;-84
2022/07/22 08:49:49;;;;;;;;;;;;;;;31.01;28.54;100500.50;1429922;91;20387;-85
2022/07/22 08:52:15;;;;;;;;;;;;;;;31.11;29.06;100502.94;1423469;91;20428;-85
2022/07/22 08:54:41;;;;;;;;;;;;;;;31.20;28.94;100505.33;1429005;91;20761;-85
2022/07/22 08:57:07;;;;;;;;;;;;;;;31.27;28.60;100502.27;1437532;91;20299;-86
2022/07/22 08:59:35;;;;;;;;;;;;;;;31.40;28.58;100507.14;1431712;91;20403;-85
2022/07/22 09:02:09;;;;;;;;;;;;;;;31.47;27.97;100508.43;1417271;91;20902;-85
2022/07/22 09:04:58;;;;;;;;;;;;;;;31.40;26.77;100510.69;1428067;91;20930;-82
2022/07/22 09:07:28;;;;;;;;;;;;;;;31.49;26.83;100504.61;1431054;91;20298;-82
2022/07/22 09:09:55;;;;;;;;;;;;;;;31.61;27.87;100507.79;1431247;91;20320;-82
2022/07/22 09:12:22;;;;;;;;;;;;;;;31.78;27.26;100506.82;1416859;91;20269;-82
2022/07/22 09:14:51;;;;;;;;;;;;;;;31.86;27.48;100497.99;1410922;91;20334;-84
2022/07/22 09:17:38;;;;;;;;;;;;;;;31.95;26.86;100505.62;1433231;91;20373;-84
2022/07/22 09:20:17;;;;;;;;;;;;;;;31.97;26.53;100492.47;1432944;91;20439;-84
2022/07/22 09:22:45;;;;;;;;;;;;;;;32.07;25.84;100497.27;1417589;91;20494;-84
2022/07/22 09:25:21;;;;;;;;;;;;;;;32.20;26.90;100502.63;1426360;91;20425;-84
2022/07/22 09:27:48;;;;;;;;;;;;;;;32.31;26.65;100498.66;1422432;91;20351;-84
2022/07/22 09:30:17;;;;;;;;;;;;;;;32.35;26.35;100497.52;1433451;91;20841;-85
2022/07/22 09:32:43;;;;;;;;;;;;;;;32.32;24.52;100496.17;1427221;91;21042;-84
2022/07/22 09:35:10;;;;;;;;;;;;;;;32.45;25.39;100499.31;1429900;91;20364;-84
2022/07/22 09:37:48;;;;;;;;;;;;;;;32.47;24.85;100497.14;1436655;91;20834;-85
2022/07/22 09:40:24;;;;;;;;;;;;;;;32.55;25.42;100497.87;1413892;91;20321;-85
2022/07/22 09:42:58;;;;;;;;;;;;;;;32.59;24.99;100497.53;1429902;91;20336;-86
2022/07/22 09:45:26;;;;;;;;;;;;;;;32.73;25.30;100490.78;1425176;91;20394;-84
2022/07/22 09:47:54;;;;;;;;;;;;;;;32.81;25.87;100489.57;1430718;91;20321;-84
2022/07/22 09:50:29;;;;;;;;;;;;;;;32.89;25.09;100487.30;1430541;91;20417;-85
2022/07/22 09:52:56;;;;;;;;;;;;;;;32.99;26.18;100489.34;1431988;91;20284;-84
2022/07/22 09:55:23;;;;;;;;;;;;;;;32.86;24.70;100481.01;1429658;91;20329;-84
2022/07/22 09:57:50;;;;;;;;;;;;;;;32.79;24.20;100480.82;1424577;91;20784;-84
2022/07/22 10:00:19;;;;;;;;;;;;;;;32.82;23.91;100484.91;1426737;91;20269;-84
2022/07/22 10:02:52;;;;;;;;;;;;;;;32.77;24.20;100483.06;1431389;91;21019;-85
2022/07/22 10:05:24;;;;;;;;;;;;;;;32.80;24.56;100477.52;1427302;91;20904;-85
2022/07/22 10:07:50;;;;;;;;;;;;;;;33.00;24.51;100484.14;1418470;91;20461;-84
2022/07/22 10:10:19;;;;;;;;;;;;;;;33.06;23.28;100473.92;1430621;91;20424;-85
2022/07/22 10:12:47;;;;;;;;;;;;;;;33.25;24.61;100474.70;1427590;91;20350;-84
2022/07/22 10:15:14;;;;;;;;;;;;;;;33.42;24.38;100470.61;1433132;91;20499;-85
2022/07/22 10:17:43;;;;;;;;;;;;;;;33.64;24.99;100472.19;1435000;91;20328;-85
2022/07/22 10:20:10;;;;;;;;;;;;;;;33.66;22.92;100465.00;1428134;91;20901;-86
2022/07/22 10:22:42;;;;;;;;;;;;;;;33.65;22.88;100468.31;1434490;91;20327;-85
2022/07/22 10:25:10;;;;;;;;;;;;;;;33.84;24.11;100467.45;1425894;91;20405;-84
2022/07/22 10:27:55;;;;;;;;;;;;;;;33.92;22.33;100461.23;1430508;91;20366;-85
2022/07/22 10:30:33;;;;;;;;;;;;;;;34.14;23.20;100462.77;1432298;91;20358;-85
2022/07/22 10:33:14;;;;;;;;;;;;;;;34.33;23.21;100459.12;1424638;91;20820;-85
2022/07/22 10:35:59;;;;;;;;;;;;;;;34.57;23.37;100453.42;1409069;92;21598;-84
2022/07/22 10:38:26;;;;;;;;;;;;;;;34.70;23.12;100449.84;1425830;91;20432;-85
2022/07/22 10:40:58;;;;;;;;;;;;;;;34.67;21.97;100453.75;1421676;91;20327;-85
2022/07/22 10:43:26;;;;;;;;;;;;;;;34.71;22.29;100439.66;1421844;91;20389;-86
2022/07/22 10:45:58;;;;;;;;;;;;;;;34.75;22.28;100442.03;1419041;91;20893;-84
2022/07/22 10:48:39;;;;;;;;;;;;;;;34.74;21.87;100443.16;1431119;91;20373;-85
2022/07/22 10:51:08;;;;;;;;;;;;;;;34.85;22.71;100447.88;1428905;91;20863;-85
2022/07/22 10:53:46;;;;;;;;;;;;;;;34.93;21.73;100446.57;1428856;91;20327;-85
2022/07/22 10:56:20;;;;;;;;;;;;;;;35.09;22.60;100447.61;1429369;92;20336;-86
2022/07/22 10:58:51;;;;;;;;;;;;;;;35.19;21.84;100442.68;1423225;91;20313;-85
2022/07/22 11:01:19;;;;;;;;;;;;;;;35.19;21.88;100438.55;1427699;91;20460;-85
2022/07/22 11:03:45;;;;;;;;;;;;;;;35.32;22.38;100436.05;1430026;91;20313;-85
2022/07/22 11:06:20;;;;;;;;;;;;;;;35.54;22.62;100436.59;1427785;91;21879;-85
2022/07/22 11:08:49;;;;;;;;;;;;;;;35.64;21.75;100436.34;1421822;92;20425;-86
2022/07/22 11:11:16;;;;;;;;;;;;;;;35.73;20.77;100433.06;1427210;92;20307;-85
2022/07/22 11:13:44;;;;;;;;;;;;;;;35.78;21.08;100429.38;1421682;91;20396;-85
2022/07/22 11:16:18;;;;;;;;;;;;;;;35.78;21.48;100428.80;1427397;92;20328;-85
2022/07/22 11:18:49;;;;;;;;;;;;;;;35.80;21.00;100425.18;1429003;92;20277;-86
2022/07/22 11:21:18;;;;;;;;;;;;;;;35.85;20.69;100426.42;1425098;91;20313;-85
2022/07/22 11:23:46;;;;;;;;;;;;;;;35.93;21.22;100422.86;1425803;92;20313;-85
2022/07/22 11:26:14;;;;;;;;;;;;;;;35.91;19.51;100422.97;1434030;91;20358;-85
2022/07/22 11:28:41;;;;;;;;;;;;;;;36.01;20.58;100412.22;1424094;92;20395;-85
2022/07/22 11:31:08;;;;;;;;;;;;;;;35.95;19.92;100419.00;1428472;92;20380;-86
2022/07/22 11:33:34;;;;;;;;;;;;;;;35.76;19.28;100415.91;1423520;91;20491;-86
2022/07/22 11:36:13;;;;;;;;;;;;;;;35.81;19.54;100415.78;1428074;92;21480;-86
2022/07/22 11:38:41;;;;;;;;;;;;;;;35.73;19.69;100409.66;1420540;92;20839;-85
2022/07/22 11:41:08;;;;;;;;;;;;;;;35.77;19.60;100407.92;1422765;91;20373;-84
2022/07/22 11:43:40;;;;;;;;;;;;;;;35.87;20.49;100403.48;1424690;91;20321;-84
2022/07/22 11:46:06;;;;;;;;;;;;;;;36.03;20.21;100409.97;1428414;91;20269;-85
2022/07/22 11:48:32;;;;;;;;;;;;;;;36.27;21.00;100401.30;1426977;92;20908;-85
2022/07/22 11:51:02;;;;;;;;;;;;;;;36.49;21.42;100395.67;1422767;92;20373;-85
2022/07/22 11:53:28;;;;;;;;;;;;;;;36.69;20.38;100394.25;1408915;91;20408;-85
2022/07/22 11:55:59;;;;;;;;;;;;;;;36.73;20.18;100392.45;1427518;91;20324;-85
2022/07/22 11:58:45;;;;;;;;;;;;;;;36.64;19.13;100388.89;1416156;91;20373;-87
2022/07/22 12:01:14;;;;;;;;;;;;;;;36.84;20.07;100388.81;1422522;91;20336;-87
2022/07/22 12:07:04;;;;;;;;;;;;;;;37.06;19.75;100380.13;1408696;93;20344;-87
2022/07/22 12:09:41;;;;;;;;;;;;;;;37.03;20.25;100374.69;1412696;92;20435;-87
2022/07/22 12:12:08;;;;;;;;;;;;;;;36.93;20.03;100372.27;1406053;93;20353;-89
2022/07/22 12:14:38;;;;;;;;;;;;;;;36.70;18.92;100371.63;1410272;92;20329;-89
2022/07/22 12:17:08;;;;;;;;;;;;;;;36.41;19.77;100373.61;1398972;92;20473;-87
2022/07/22 12:19:35;;;;;;;;;;;;;;;36.47;19.88;100361.30;1414510;92;20964;-87
2022/07/22 12:22:04;;;;;;;;;;;;;;;36.53;20.11;100358.64;1411428;91;20298;-87
2022/07/22 12:24:44;;;;;;;;;;;;;;;36.60;20.26;100358.98;1422219;92;20329;-86
2022/07/22 12:27:13;;;;;;;;;;;;;;;36.37;18.58;100361.05;1426662;91;20306;-86
2022/07/22 12:29:42;;;;;;;;;;;;;;;36.65;19.62;100351.91;1427460;91;21235;-86
2022/07/22 12:32:24;;;;;;;;;;;;;;;36.85;20.62;100353.20;1419981;91;21027;-86
2022/07/22 12:35:02;;;;;;;;;;;;;;;36.72;19.41;100348.69;1426830;91;20336;-86
2022/07/22 12:37:34;;;;;;;;;;;;;;;36.75;20.03;100347.45;1424050;92;20320;-86
2022/07/22 12:40:03;;;;;;;;;;;;;;;36.69;19.54;100339.12;1422243;92;20344;-86